Arthur Maersk — OXJH2 — position and weather

sailwx.info

Track history (hours):
 
Tides and Currents Weather Stations Pressure Air Temp Water Temp Dewpoint Dewpoint Depression Visibility Wind Speed Wind Dir Waves Ship Positions

Arthur Maersk

Last reported at 2015-Jul-31 09:28 UTC. Time now 2015-Jul-31 11:19 UTC.
Position N 29°54' E 122°03'.

Length 352 m; draft 8.9 m.

Type: Cargo ship. MMSI: 220221000.

Date/timePositionNaut miles runAvg speedWind from/ knotsBaromVisibWave heightAir tempDewpointWater temp
2015-Jul-31 09:28N 29°54' E 122°03'1 0.1
2015-Jul-30 20:29N 29°54' E 122°02'0 0.2
2015-Jul-30 19:30N 29°54' E 122°02'5 5.3
2015-Jul-30 18:33N 29°55' E 122°08'1010.1
2015-Jul-30 17:31N 29°47' E 122°16'8 8.1
2015-Jul-30 16:34N 29°44' E 122°24'6 0.2
2015-Jul-29 16:06N 29°40' E 122°28'3 4.0
2015-Jul-29 15:26N 29°40' E 122°31'1211.2
2015-Jul-29 14:22N 29°28' E 122°34'1112.7
2015-Jul-29 13:31N 29°18' E 122°36'1313.2
2015-Jul-29 12:33N 29°05' E 122°37'1513.3
2015-Jul-29 11:24N 28°50' E 122°37'1513.4
2015-Jul-29 10:16N 28°35' E 122°31'37113.2
2015-Jul-28 06:15N 22°51' E 119°59'812.1
2015-Jul-28 05:33N 22°44' E 120°04'1211.8
2015-Jul-28 04:33N 22°35' E 120°12'7 7.3
2015-Jul-28 03:34N 22°33' E 120°20'0 0.1
2015-Jul-28 02:31N 22°33' E 120°20'0 0.0
2015-Jul-27 18:10N 22°33' E 120°20'0 0.0
2015-Jul-27 17:34N 22°33' E 120°20'0 0.2
2015-Jul-27 16:33N 22°33' E 120°20'6 6.3
2015-Jul-27 15:33N 22°32' E 120°13'8 7.8
2015-Jul-27 14:33N 22°27' E 120°06'1313.0
2015-Jul-27 13:33N 22°18' E 119°56'  
2015-Jul-23 00:25N 01°15' E 104°04'1314.7
2015-Jul-22 23:33N 01°12' E 103°52'8 7.6
2015-Jul-22 22:33N 01°16' E 103°46'0 0.2
2015-Jul-22 21:33N 01°16' E 103°46'0 0.0
2015-Jul-22 19:21N 01°16' E 103°46'0 0.0
2015-Jul-22 18:12N 01°16' E 103°46'0 0.0
2015-Jul-22 17:21N 01°16' E 103°46'0 0.0
2015-Jul-22 16:33N 01°16' E 103°46'0 0.0
2015-Jul-22 15:33N 01°16' E 103°46'0 0.0
2015-Jul-22 14:27N 01°16' E 103°46'0 0.0
2015-Jul-22 13:33N 01°16' E 103°46'0 0.0
2015-Jul-22 12:30N 01°16' E 103°46'0 0.0
2015-Jul-22 10:33N 01°16' E 103°46'0 0.0
2015-Jul-22 09:27N 01°16' E 103°46'0 0.0
2015-Jul-22 08:33N 01°16' E 103°46'0 0.0
2015-Jul-22 07:27N 01°16' E 103°46'0 0.0
2015-Jul-22 06:33N 01°16' E 103°46'0 0.0
2015-Jul-22 05:21N 01°16' E 103°46'0 0.0
2015-Jul-22 04:33N 01°16' E 103°46'0 0.0
2015-Jul-22 03:21N 01°16' E 103°46'0 0.0
2015-Jul-22 02:33N 01°16' E 103°46'0 0.0
2015-Jul-22 01:33N 01°16' E 103°46'0 0.0
2015-Jul-22 00:33N 01°16' E 103°46'0 0.0
2015-Jul-21 23:33N 01°16' E 103°46'2 2.2
2015-Jul-21 22:33N 01°15' E 103°44'8 8.2
2015-Jul-21 21:33N 01°13' E 103°36'14114.1
2015-Jul-21 11:33N 02°25' E 101°35'  
Track history (hours):
 
Tides and Currents Weather Stations Pressure Air Temp Water Temp Dewpoint Dewpoint Depression Visibility Wind Speed Wind Dir Waves Ship Positions

Arthur Maersk

Last reported at 2015-Jul-31 09:28 UTC. Time now 2015-Jul-31 11:19 UTC.
Position N 29°54' E 122°03'.

Length 352 m; draft 8.9 m.

Type: Cargo ship. MMSI: 220221000.

Date/timePositionNaut miles runAvg speedWind from/ knotsBaromVisibWave heightAir tempDewpointWater temp
2015-Jul-31 09:28N 29°54' E 122°03'1 0.1
2015-Jul-30 20:29N 29°54' E 122°02'0 0.2
2015-Jul-30 19:30N 29°54' E 122°02'5 5.3
2015-Jul-30 18:33N 29°55' E 122°08'1010.1
2015-Jul-30 17:31N 29°47' E 122°16'8 8.1
2015-Jul-30 16:34N 29°44' E 122°24'6 0.2
2015-Jul-29 16:06N 29°40' E 122°28'3 4.0
2015-Jul-29 15:26N 29°40' E 122°31'1211.2
2015-Jul-29 14:22N 29°28' E 122°34'1112.7
2015-Jul-29 13:31N 29°18' E 122°36'1313.2
2015-Jul-29 12:33N 29°05' E 122°37'1513.3
2015-Jul-29 11:24N 28°50' E 122°37'1513.4
2015-Jul-29 10:16N 28°35' E 122°31'37113.2
2015-Jul-28 06:15N 22°51' E 119°59'812.1
2015-Jul-28 05:33N 22°44' E 120°04'1211.8
2015-Jul-28 04:33N 22°35' E 120°12'7 7.3
2015-Jul-28 03:34N 22°33' E 120°20'0 0.1
2015-Jul-28 02:31N 22°33' E 120°20'0 0.0
2015-Jul-27 18:10N 22°33' E 120°20'0 0.0
2015-Jul-27 17:34N 22°33' E 120°20'0 0.2
2015-Jul-27 16:33N 22°33' E 120°20'6 6.3
2015-Jul-27 15:33N 22°32' E 120°13'8 7.8
2015-Jul-27 14:33N 22°27' E 120°06'1313.0
2015-Jul-27 13:33N 22°18' E 119°56'  
2015-Jul-23 00:25N 01°15' E 104°04'1314.7
2015-Jul-22 23:33N 01°12' E 103°52'8 7.6
2015-Jul-22 22:33N 01°16' E 103°46'0 0.2
2015-Jul-22 21:33N 01°16' E 103°46'0 0.0
2015-Jul-22 19:21N 01°16' E 103°46'0 0.0
2015-Jul-22 18:12N 01°16' E 103°46'0 0.0
2015-Jul-22 17:21N 01°16' E 103°46'0 0.0
2015-Jul-22 16:33N 01°16' E 103°46'0 0.0
2015-Jul-22 15:33N 01°16' E 103°46'0 0.0
2015-Jul-22 14:27N 01°16' E 103°46'0 0.0
2015-Jul-22 13:33N 01°16' E 103°46'0 0.0
2015-Jul-22 12:30N 01°16' E 103°46'0 0.0
2015-Jul-22 10:33N 01°16' E 103°46'0 0.0
2015-Jul-22 09:27N 01°16' E 103°46'0 0.0
2015-Jul-22 08:33N 01°16' E 103°46'0 0.0
2015-Jul-22 07:27N 01°16' E 103°46'0 0.0
2015-Jul-22 06:33N 01°16' E 103°46'0 0.0
2015-Jul-22 05:21N 01°16' E 103°46'0 0.0
2015-Jul-22 04:33N 01°16' E 103°46'0 0.0
2015-Jul-22 03:21N 01°16' E 103°46'0 0.0
2015-Jul-22 02:33N 01°16' E 103°46'0 0.0
2015-Jul-22 01:33N 01°16' E 103°46'0 0.0
2015-Jul-22 00:33N 01°16' E 103°46'0 0.0
2015-Jul-21 23:33N 01°16' E 103°46'2 2.2
2015-Jul-21 22:33N 01°15' E 103°44'8 8.2
2015-Jul-21 21:33N 01°13' E 103°36'14114.1
2015-Jul-21 11:33N 02°25' E 101°35'  

Dump ship's entire track history